sensor_id;sensor_type;location;lat;lon;timestamp;pressure;altitude;pressure_sealevel;temperature;humidity
61408;BME280;47274;43.054;25.146;2023-09-12T00:02:09;95717.34;;;15.54;51.40
61408;BME280;47274;43.054;25.146;2023-09-12T00:04:35;95678.41;;;15.24;51.71
61408;BME280;47274;43.054;25.146;2023-09-12T00:07:01;95648.53;;;14.99;51.11
61408;BME280;47274;43.054;25.146;2023-09-12T00:09:27;95662.78;;;15.17;50.20
61408;BME280;47274;43.054;25.146;2023-09-12T00:11:53;95664.19;;;15.28;49.17
61408;BME280;47274;43.054;25.146;2023-09-12T00:14:20;95669.13;;;15.38;47.83
61408;BME280;47274;43.054;25.146;2023-09-12T00:16:46;95710.56;;;15.76;47.37
61408;BME280;47274;43.054;25.146;2023-09-12T00:19:12;95694.31;;;15.67;47.41
61408;BME280;47274;43.054;25.146;2023-09-12T00:21:38;95703.34;;;15.71;47.35
61408;BME280;47274;43.054;25.146;2023-09-12T00:24:04;95682.06;;;15.61;47.80
61408;BME280;47274;43.054;25.146;2023-09-12T00:26:30;95720.69;;;15.85;47.66
61408;BME280;47274;43.054;25.146;2023-09-12T00:28:56;95708.81;;;15.76;47.84
61408;BME280;47274;43.054;25.146;2023-09-12T00:31:22;95712.81;;;15.79;48.22
61408;BME280;47274;43.054;25.146;2023-09-12T00:33:48;95653.59;;;15.38;48.61
61408;BME280;47274;43.054;25.146;2023-09-12T00:36:14;95715.13;;;15.74;48.85
61408;BME280;47274;43.054;25.146;2023-09-12T00:38:39;95676.59;;;15.33;49.33
61408;BME280;47274;43.054;25.146;2023-09-12T00:41:05;95709.47;;;15.47;49.92
61408;BME280;47274;43.054;25.146;2023-09-12T00:43:31;95702.59;;;15.31;50.41
61408;BME280;47274;43.054;25.146;2023-09-12T00:45:56;95713.31;;;15.28;50.92
61408;BME280;47274;43.054;25.146;2023-09-12T00:48:23;95710.41;;;15.23;51.39
61408;BME280;47274;43.054;25.146;2023-09-12T00:50:51;95669.34;;;14.66;52.29
61408;BME280;47274;43.054;25.146;2023-09-12T00:53:19;95673.56;;;14.67;51.40
61408;BME280;47274;43.054;25.146;2023-09-12T00:55:50;95716.25;;;14.94;51.20
61408;BME280;47274;43.054;25.146;2023-09-12T00:58:18;95710.72;;;14.97;51.09
61408;BME280;47274;43.054;25.146;2023-09-12T01:00:54;95682.72;;;14.78;50.50
61408;BME280;47274;43.054;25.146;2023-09-12T01:03:21;95637.75;;;14.48;51.07
61408;BME280;47274;43.054;25.146;2023-09-12T01:05:47;95616.69;;;14.28;51.91
61408;BME280;47274;43.054;25.146;2023-09-12T01:08:13;95679.72;;;14.50;52.43
61408;BME280;47274;43.054;25.146;2023-09-12T01:10:39;95685.56;;;14.35;53.17
61408;BME280;47274;43.054;25.146;2023-09-12T01:13:05;95731.53;;;14.56;53.63
61408;BME280;47274;43.054;25.146;2023-09-12T01:15:31;95712.69;;;14.39;53.97
61408;BME280;47274;43.054;25.146;2023-09-12T01:17:57;95703.84;;;14.26;54.08
61408;BME280;47274;43.054;25.146;2023-09-12T01:20:27;95703.84;;;14.26;53.94
61408;BME280;47274;43.054;25.146;2023-09-12T01:28:40;95687.91;;;13.89;55.33
61408;BME280;47274;43.054;25.146;2023-09-12T01:31:10;95678.41;;;13.82;55.40
61408;BME280;47274;43.054;25.146;2023-09-12T01:33:37;95702.56;;;13.97;55.46
61408;BME280;47274;43.054;25.146;2023-09-12T01:36:02;95714.66;;;14.05;56.04
61408;BME280;47274;43.054;25.146;2023-09-12T01:38:29;95712.72;;;14.07;56.72
61408;BME280;47274;43.054;25.146;2023-09-12T01:40:55;95716.28;;;14.06;57.06
61408;BME280;47274;43.054;25.146;2023-09-12T01:43:23;95703.88;;;13.85;57.54
61408;BME280;47274;43.054;25.146;2023-09-12T01:45:54;95725.78;;;13.97;57.47
61408;BME280;47274;43.054;25.146;2023-09-12T01:48:28;95722.91;;;13.92;58.03
61408;BME280;47274;43.054;25.146;2023-09-12T01:51:00;95703.22;;;13.83;58.45
61408;BME280;47274;43.054;25.146;2023-09-12T01:53:26;95728.06;;;13.92;58.48
61408;BME280;47274;43.054;25.146;2023-09-12T01:55:54;95707.41;;;13.84;59.02
61408;BME280;47274;43.054;25.146;2023-09-12T01:58:21;95699.81;;;13.74;59.24
61408;BME280;47274;43.054;25.146;2023-09-12T02:00:46;95691.78;;;13.69;59.61
61408;BME280;47274;43.054;25.146;2023-09-12T02:03:12;95729.84;;;13.75;60.42
61408;BME280;47274;43.054;25.146;2023-09-12T02:05:38;95694.19;;;13.54;60.78
61408;BME280;47274;43.054;25.146;2023-09-12T02:08:05;95711.94;;;13.82;60.19
61408;BME280;47274;43.054;25.146;2023-09-12T02:10:31;95709.66;;;13.87;60.39
61408;BME280;47274;43.054;25.146;2023-09-12T02:12:57;95669.84;;;13.57;60.37
61408;BME280;47274;43.054;25.146;2023-09-12T02:15:23;95698.38;;;13.55;60.83
61408;BME280;47274;43.054;25.146;2023-09-12T02:17:49;95712.72;;;13.66;61.66
61408;BME280;47274;43.054;25.146;2023-09-12T02:20:18;95683.06;;;13.45;61.14
61408;BME280;47274;43.054;25.146;2023-09-12T02:22:45;95721.75;;;13.70;61.22
61408;BME280;47274;43.054;25.146;2023-09-12T02:25:14;95692.09;;;13.49;61.41
61408;BME280;47274;43.054;25.146;2023-09-12T02:27:39;95694.03;;;13.64;61.75
61408;BME280;47274;43.054;25.146;2023-09-12T02:30:05;95716.94;;;13.75;61.58
61408;BME280;47274;43.054;25.146;2023-09-12T02:32:31;95707.72;;;13.56;61.85
61408;BME280;47274;43.054;25.146;2023-09-12T02:34:57;95705.66;;;13.68;61.86
61408;BME280;47274;43.054;25.146;2023-09-12T02:37:26;95701.28;;;13.77;61.23
61408;BME280;47274;43.054;25.146;2023-09-12T02:39:51;95687.09;;;13.81;60.77
61408;BME280;47274;43.054;25.146;2023-09-12T02:42:17;95694.19;;;13.87;60.47
61408;BME280;47274;43.054;25.146;2023-09-12T02:44:43;95656.31;;;13.46;60.96
61408;BME280;47274;43.054;25.146;2023-09-12T02:47:09;95722.25;;;13.65;61.17
61408;BME280;47274;43.054;25.146;2023-09-12T02:49:34;95712.72;;;13.74;60.80
61408;BME280;47274;43.054;25.146;2023-09-12T02:52:00;95705.31;;;13.87;60.10
61408;BME280;47274;43.054;25.146;2023-09-12T02:54:26;95712.56;;;14.00;59.66
61408;BME280;47274;43.054;25.146;2023-09-12T02:56:52;95710.78;;;14.01;59.40
61408;BME280;47274;43.054;25.146;2023-09-12T02:59:18;95713.19;;;14.10;59.22
61408;BME280;47274;43.054;25.146;2023-09-12T03:01:44;95694.47;;;14.16;57.74
61408;BME280;47274;43.054;25.146;2023-09-12T03:04:10;95702.19;;;14.25;57.09
61408;BME280;47274;43.054;25.146;2023-09-12T03:06:36;95666.31;;;13.98;57.08
61408;BME280;47274;43.054;25.146;2023-09-12T03:09:02;95667.56;;;14.03;56.93
61408;BME280;47274;43.054;25.146;2023-09-12T03:11:28;95717.22;;;14.29;56.80
61408;BME280;47274;43.054;25.146;2023-09-12T03:13:55;95706.09;;;14.20;57.11
61408;BME280;47274;43.054;25.146;2023-09-12T03:16:21;95724.97;;;14.21;57.60
61408;BME280;47274;43.054;25.146;2023-09-12T03:18:49;95725.13;;;14.11;57.74
61408;BME280;47274;43.054;25.146;2023-09-12T03:21:15;95713.69;;;14.06;57.25
61408;BME280;47274;43.054;25.146;2023-09-12T03:23:41;95696.28;;;13.99;57.02
61408;BME280;47274;43.054;25.146;2023-09-12T03:26:07;95724.47;;;14.26;56.37
61408;BME280;47274;43.054;25.146;2023-09-12T03:28:34;95704.97;;;14.15;56.38
61408;BME280;47274;43.054;25.146;2023-09-12T03:31:13;95676.94;;;13.95;57.33
61408;BME280;47274;43.054;25.146;2023-09-12T03:33:41;95704.81;;;14.08;57.26
61408;BME280;47274;43.054;25.146;2023-09-12T03:36:08;95729.97;;;14.22;57.54
61408;BME280;47274;43.054;25.146;2023-09-12T03:38:35;95714.97;;;14.10;57.55
61408;BME280;47274;43.054;25.146;2023-09-12T03:41:01;95710.63;;;13.94;58.26
61408;BME280;47274;43.054;25.146;2023-09-12T03:43:27;95710.16;;;13.90;58.79
61408;BME280;47274;43.054;25.146;2023-09-12T03:45:54;95724.03;;;13.89;59.34
61408;BME280;47274;43.054;25.146;2023-09-12T03:48:20;95730.78;;;13.90;59.33
61408;BME280;47274;43.054;25.146;2023-09-12T03:50:46;95721.59;;;13.96;59.45
61408;BME280;47274;43.054;25.146;2023-09-12T03:53:14;95710.31;;;13.89;58.84
61408;BME280;47274;43.054;25.146;2023-09-12T03:55:40;95717.53;;;14.02;58.68
61408;BME280;47274;43.054;25.146;2023-09-12T03:58:06;95704.16;;;13.98;58.75
61408;BME280;47274;43.054;25.146;2023-09-12T04:00:34;95710.28;;;14.13;58.56
61408;BME280;47274;43.054;25.146;2023-09-12T04:03:00;95722.22;;;14.22;58.76
61408;BME280;47274;43.054;25.146;2023-09-12T04:05:26;95737.38;;;14.34;58.57
61408;BME280;47274;43.054;25.146;2023-09-12T04:07:52;95728.66;;;14.27;58.80
61408;BME280;47274;43.054;25.146;2023-09-12T04:10:20;95738.66;;;14.30;58.98
61408;BME280;47274;43.054;25.146;2023-09-12T04:12:46;95729.63;;;14.17;59.33
61408;BME280;47274;43.054;25.146;2023-09-12T04:15:12;95728.00;;;14.25;59.41
61408;BME280;47274;43.054;25.146;2023-09-12T04:17:40;95727.00;;;14.42;58.42
61408;BME280;47274;43.054;25.146;2023-09-12T04:20:06;95693.81;;;14.31;57.82
61408;BME280;47274;43.054;25.146;2023-09-12T04:22:33;95721.56;;;14.53;57.53
61408;BME280;47274;43.054;25.146;2023-09-12T04:24:59;95737.13;;;14.76;56.74
61408;BME280;47274;43.054;25.146;2023-09-12T04:27:26;95742.09;;;14.86;56.68
61408;BME280;47274;43.054;25.146;2023-09-12T04:29:52;95697.47;;;14.61;56.67
61408;BME280;47274;43.054;25.146;2023-09-12T04:32:18;95731.81;;;14.69;57.52
61408;BME280;47274;43.054;25.146;2023-09-12T04:34:49;95698.13;;;14.38;58.16
61408;BME280;47274;43.054;25.146;2023-09-12T04:37:16;95728.75;;;14.66;57.44
61408;BME280;47274;43.054;25.146;2023-09-12T04:39:42;95741.34;;;14.77;57.35
61408;BME280;47274;43.054;25.146;2023-09-12T04:42:08;95727.94;;;14.65;57.81
61408;BME280;47274;43.054;25.146;2023-09-12T04:44:35;95728.13;;;14.64;57.96
61408;BME280;47274;43.054;25.146;2023-09-12T04:47:02;95727.81;;;14.67;57.55
61408;BME280;47274;43.054;25.146;2023-09-12T04:49:28;95727.47;;;14.70;57.12
61408;BME280;47274;43.054;25.146;2023-09-12T04:51:57;95731.94;;;14.84;56.96
61408;BME280;47274;43.054;25.146;2023-09-12T04:54:23;95742.84;;;15.03;56.54
61408;BME280;47274;43.054;25.146;2023-09-12T04:56:49;95733.28;;;15.03;55.93
61408;BME280;47274;43.054;25.146;2023-09-12T04:59:17;95721.03;;;15.05;56.22
61408;BME280;47274;43.054;25.146;2023-09-12T05:01:43;95739.03;;;15.22;55.89
61408;BME280;47274;43.054;25.146;2023-09-12T05:04:09;95734.22;;;15.19;55.82
61408;BME280;47274;43.054;25.146;2023-09-12T05:06:35;95721.41;;;15.25;55.62
61408;BME280;47274;43.054;25.146;2023-09-12T05:09:01;95757.81;;;15.47;56.19
61408;BME280;47274;43.054;25.146;2023-09-12T05:11:28;95760.63;;;15.60;55.28
61408;BME280;47274;43.054;25.146;2023-09-12T05:13:54;95743.28;;;15.46;55.37
61408;BME280;47274;43.054;25.146;2023-09-12T05:16:21;95763.38;;;15.67;55.72
61408;BME280;47274;43.054;25.146;2023-09-12T05:18:46;95747.53;;;15.61;55.63
61408;BME280;47274;43.054;25.146;2023-09-12T05:21:15;95764.75;;;15.77;54.92
61408;BME280;47274;43.054;25.146;2023-09-12T05:23:41;95734.25;;;15.73;55.07
61408;BME280;47274;43.054;25.146;2023-09-12T05:26:07;95765.03;;;16.05;55.12
61408;BME280;47274;43.054;25.146;2023-09-12T05:28:34;95743.88;;;16.02;53.81
61408;BME280;47274;43.054;25.146;2023-09-12T05:31:00;95749.25;;;16.15;54.07
61408;BME280;47274;43.054;25.146;2023-09-12T05:33:25;95750.38;;;16.35;53.91
61408;BME280;47274;43.054;25.146;2023-09-12T05:35:52;95735.19;;;16.32;53.93
61408;BME280;47274;43.054;25.146;2023-09-12T05:38:17;95748.69;;;16.43;53.80
61408;BME280;47274;43.054;25.146;2023-09-12T05:40:43;95730.19;;;16.46;53.04
61408;BME280;47274;43.054;25.146;2023-09-12T05:43:09;95747.28;;;16.70;53.16
61408;BME280;47274;43.054;25.146;2023-09-12T05:45:35;95755.13;;;16.62;53.65
61408;BME280;47274;43.054;25.146;2023-09-12T05:48:01;95761.34;;;16.75;53.43
61408;BME280;47274;43.054;25.146;2023-09-12T05:50:33;95736.53;;;16.58;52.79
61408;BME280;47274;43.054;25.146;2023-09-12T05:52:59;95721.19;;;16.56;53.01
61408;BME280;47274;43.054;25.146;2023-09-12T05:55:24;95747.22;;;16.93;52.60
61408;BME280;47274;43.054;25.146;2023-09-12T05:57:50;95771.06;;;17.03;52.57
61408;BME280;47274;43.054;25.146;2023-09-12T06:00:20;95684.00;;;16.64;52.80
61408;BME280;47274;43.054;25.146;2023-09-12T06:02:49;95760.88;;;17.16;52.63
61408;BME280;47274;43.054;25.146;2023-09-12T06:05:15;95772.81;;;17.32;51.93
61408;BME280;47274;43.054;25.146;2023-09-12T06:07:41;95772.16;;;17.45;50.51
61408;BME280;47274;43.054;25.146;2023-09-12T06:10:08;95714.63;;;17.20;52.34
61408;BME280;47274;43.054;25.146;2023-09-12T06:12:34;95768.66;;;17.52;50.82
61408;BME280;47274;43.054;25.146;2023-09-12T06:15:02;95779.72;;;17.76;51.76
61408;BME280;47274;43.054;25.146;2023-09-12T06:17:30;95764.34;;;17.60;51.19
61408;BME280;47274;43.054;25.146;2023-09-12T06:19:56;95779.25;;;17.72;51.66
61408;BME280;47274;43.054;25.146;2023-09-12T06:22:21;95768.84;;;17.72;52.18
61408;BME280;47274;43.054;25.146;2023-09-12T06:24:50;95788.47;;;17.75;51.58
61408;BME280;47274;43.054;25.146;2023-09-12T06:27:15;95788.56;;;17.82;51.53
61408;BME280;47274;43.054;25.146;2023-09-12T06:29:48;95769.31;;;17.97;51.61
61408;BME280;47274;43.054;25.146;2023-09-12T06:32:14;95774.13;;;18.22;51.48
61408;BME280;47274;43.054;25.146;2023-09-12T06:34:41;95783.81;;;18.84;50.54
61408;BME280;47274;43.054;25.146;2023-09-12T06:37:07;95756.19;;;18.55;49.59
61408;BME280;47274;43.054;25.146;2023-09-12T06:39:33;95779.41;;;18.57;50.11
61408;BME280;47274;43.054;25.146;2023-09-12T06:41:59;95771.03;;;18.61;50.07
61408;BME280;47274;43.054;25.146;2023-09-12T06:44:24;95797.97;;;19.16;49.48
61408;BME280;47274;43.054;25.146;2023-09-12T06:46:50;95754.81;;;18.87;48.87
61408;BME280;47274;43.054;25.146;2023-09-12T06:49:16;95783.47;;;19.42;48.95
61408;BME280;47274;43.054;25.146;2023-09-12T06:51:42;95793.47;;;19.45;48.82
61408;BME280;47274;43.054;25.146;2023-09-12T06:54:10;95764.81;;;19.32;48.54
61408;BME280;47274;43.054;25.146;2023-09-12T06:56:36;95794.66;;;19.91;47.75
61408;BME280;47274;43.054;25.146;2023-09-12T06:59:04;95748.19;;;19.26;47.11
61408;BME280;47274;43.054;25.146;2023-09-12T07:01:30;95783.78;;;19.74;47.32
61408;BME280;47274;43.054;25.146;2023-09-12T07:03:56;95790.44;;;20.09;46.33
61408;BME280;47274;43.054;25.146;2023-09-12T07:06:23;95814.66;;;19.83;47.75
61408;BME280;47274;43.054;25.146;2023-09-12T07:08:49;95796.28;;;20.31;46.03
61408;BME280;47274;43.054;25.146;2023-09-12T07:11:18;95811.94;;;20.58;46.55
61408;BME280;47274;43.054;25.146;2023-09-12T07:13:45;95802.72;;;20.82;45.81
61408;BME280;47274;43.054;25.146;2023-09-12T07:16:11;95819.34;;;20.94;44.90
61408;BME280;47274;43.054;25.146;2023-09-12T07:18:37;95819.97;;;20.76;44.71
61408;BME280;47274;43.054;25.146;2023-09-12T07:21:04;95827.28;;;21.26;43.39
61408;BME280;47274;43.054;25.146;2023-09-12T07:23:31;95808.16;;;21.52;44.33
61408;BME280;47274;43.054;25.146;2023-09-12T07:25:58;95826.50;;;21.12;42.68
61408;BME280;47274;43.054;25.146;2023-09-12T07:28:27;95818.91;;;21.11;44.42
61408;BME280;47274;43.054;25.146;2023-09-12T07:30:54;95809.63;;;21.21;43.88
61408;BME280;47274;43.054;25.146;2023-09-12T07:33:20;95814.25;;;21.13;43.05
61408;BME280;47274;43.054;25.146;2023-09-12T07:35:47;95830.03;;;21.58;43.26
61408;BME280;47274;43.054;25.146;2023-09-12T07:38:13;95824.34;;;22.06;41.18
61408;BME280;47274;43.054;25.146;2023-09-12T07:40:42;95826.41;;;21.97;41.58
61408;BME280;47274;43.054;25.146;2023-09-12T07:43:11;95796.34;;;21.81;41.33
61408;BME280;47274;43.054;25.146;2023-09-12T07:45:43;95820.06;;;22.50;41.26
61408;BME280;47274;43.054;25.146;2023-09-12T07:48:10;95810.75;;;22.79;41.04
61408;BME280;47274;43.054;25.146;2023-09-12T07:50:37;95820.03;;;23.36;40.39
61408;BME280;47274;43.054;25.146;2023-09-12T07:53:05;95807.31;;;23.22;39.51
61408;BME280;47274;43.054;25.146;2023-09-12T07:55:31;95820.19;;;23.23;38.16
61408;BME280;47274;43.054;25.146;2023-09-12T07:58:02;95805.78;;;23.14;39.75
61408;BME280;47274;43.054;25.146;2023-09-12T08:00:28;95827.75;;;23.68;38.64
61408;BME280;47274;43.054;25.146;2023-09-12T08:02:54;95804.38;;;24.39;38.04
61408;BME280;47274;43.054;25.146;2023-09-12T08:05:20;95813.19;;;24.02;37.89
61408;BME280;47274;43.054;25.146;2023-09-12T08:07:46;95820.50;;;24.54;37.71
61408;BME280;47274;43.054;25.146;2023-09-12T08:10:12;95748.03;;;24.29;37.15
61408;BME280;47274;43.054;25.146;2023-09-12T08:12:38;95804.31;;;24.57;37.21
61408;BME280;47274;43.054;25.146;2023-09-12T08:15:04;95799.50;;;25.13;37.77
61408;BME280;47274;43.054;25.146;2023-09-12T08:17:30;95815.09;;;25.95;36.13
61408;BME280;47274;43.054;25.146;2023-09-12T08:19:56;95825.59;;;26.12;34.05
61408;BME280;47274;43.054;25.146;2023-09-12T08:22:24;95829.09;;;25.60;34.98
61408;BME280;47274;43.054;25.146;2023-09-12T08:24:52;95814.38;;;25.59;34.59
61408;BME280;47274;43.054;25.146;2023-09-12T08:27:18;95809.31;;;25.98;35.39
61408;BME280;47274;43.054;25.146;2023-09-12T08:29:44;95822.50;;;26.15;35.48
61408;BME280;47274;43.054;25.146;2023-09-12T08:32:12;95824.50;;;25.67;35.43
61408;BME280;47274;43.054;25.146;2023-09-12T08:34:38;95792.78;;;26.14;35.53
61408;BME280;47274;43.054;25.146;2023-09-12T08:37:04;95813.69;;;26.38;33.46
61408;BME280;47274;43.054;25.146;2023-09-12T08:39:41;95817.84;;;26.34;34.49
61408;BME280;47274;43.054;25.146;2023-09-12T08:42:13;95824.16;;;26.04;34.35
61408;BME280;47274;43.054;25.146;2023-09-12T08:44:41;95783.53;;;26.29;33.93
61408;BME280;47274;43.054;25.146;2023-09-12T08:47:11;95808.78;;;26.75;34.77
61408;BME280;47274;43.054;25.146;2023-09-12T08:49:37;95823.28;;;26.78;34.47
61408;BME280;47274;43.054;25.146;2023-09-12T08:52:04;95779.91;;;26.46;34.49
61408;BME280;47274;43.054;25.146;2023-09-12T08:54:31;95790.44;;;27.19;34.55
61408;BME280;47274;43.054;25.146;2023-09-12T08:57:02;95808.81;;;27.58;33.71
61408;BME280;47274;43.054;25.146;2023-09-12T08:59:31;95804.09;;;27.60;33.55
61408;BME280;47274;43.054;25.146;2023-09-12T09:01:58;95769.28;;;27.36;32.19
61408;BME280;47274;43.054;25.146;2023-09-12T09:04:25;95813.56;;;27.56;32.28
61408;BME280;47274;43.054;25.146;2023-09-12T09:06:54;95815.19;;;27.84;31.46
61408;BME280;47274;43.054;25.146;2023-09-12T09:09:21;95801.50;;;28.41;32.43
61408;BME280;47274;43.054;25.146;2023-09-12T09:11:48;95812.16;;;28.94;31.15
61408;BME280;47274;43.054;25.146;2023-09-12T09:14:13;95809.25;;;29.43;30.35
61408;BME280;47274;43.054;25.146;2023-09-12T09:16:39;95810.16;;;28.69;31.50
61408;BME280;47274;43.054;25.146;2023-09-12T09:19:05;95780.84;;;27.35;32.61
61408;BME280;47274;43.054;25.146;2023-09-12T09:21:37;95804.72;;;28.86;31.99
61408;BME280;47274;43.054;25.146;2023-09-12T09:24:07;95788.06;;;29.27;31.11
61408;BME280;47274;43.054;25.146;2023-09-12T09:27:03;95816.13;;;30.22;30.39
61408;BME280;47274;43.054;25.146;2023-09-12T09:29:29;95801.84;;;30.43;30.46
61408;BME280;47274;43.054;25.146;2023-09-12T09:32:01;95793.00;;;29.77;30.24
61408;BME280;47274;43.054;25.146;2023-09-12T09:34:27;95819.84;;;30.21;31.01
61408;BME280;47274;43.054;25.146;2023-09-12T09:36:56;95814.72;;;29.89;30.62
61408;BME280;47274;43.054;25.146;2023-09-12T09:39:24;95806.09;;;30.29;30.58
61408;BME280;47274;43.054;25.146;2023-09-12T09:41:55;95811.09;;;30.36;29.08
61408;BME280;47274;43.054;25.146;2023-09-12T09:44:22;95789.59;;;30.12;30.69
61408;BME280;47274;43.054;25.146;2023-09-12T09:46:58;95809.00;;;30.79;29.85
61408;BME280;47274;43.054;25.146;2023-09-12T09:49:26;95811.34;;;30.75;30.11
61408;BME280;47274;43.054;25.146;2023-09-12T09:51:54;95803.44;;;30.44;30.19
61408;BME280;47274;43.054;25.146;2023-09-12T09:54:24;95795.75;;;30.53;29.20
61408;BME280;47274;43.054;25.146;2023-09-12T09:56:53;95807.31;;;29.91;29.86
61408;BME280;47274;43.054;25.146;2023-09-12T09:59:25;95792.47;;;29.69;31.44
61408;BME280;47274;43.054;25.146;2023-09-12T10:01:56;95806.88;;;30.60;29.77
61408;BME280;47274;43.054;25.146;2023-09-12T10:04:24;95797.56;;;30.07;30.29
61408;BME280;47274;43.054;25.146;2023-09-12T10:06:55;95779.88;;;30.38;29.92
61408;BME280;47274;43.054;25.146;2023-09-12T10:09:23;95801.06;;;30.23;30.89
61408;BME280;47274;43.054;25.146;2023-09-12T10:11:52;95790.19;;;30.44;30.13
61408;BME280;47274;43.054;25.146;2023-09-12T10:14:20;95792.00;;;30.90;30.21
61408;BME280;47274;43.054;25.146;2023-09-12T10:16:48;95792.53;;;31.02;30.29
61408;BME280;47274;43.054;25.146;2023-09-12T10:19:26;95786.13;;;31.19;29.39
61408;BME280;47274;43.054;25.146;2023-09-12T10:22:24;95789.44;;;31.55;29.73
61408;BME280;47274;43.054;25.146;2023-09-12T10:24:49;95772.38;;;31.71;28.82
61408;BME280;47274;43.054;25.146;2023-09-12T10:27:18;95781.56;;;31.39;28.82
61408;BME280;47274;43.054;25.146;2023-09-12T10:29:45;95787.06;;;31.48;29.25
61408;BME280;47274;43.054;25.146;2023-09-12T10:32:14;95765.19;;;31.77;29.09
61408;BME280;47274;43.054;25.146;2023-09-12T10:34:41;95792.78;;;32.20;28.45
61408;BME280;47274;43.054;25.146;2023-09-12T10:37:12;95785.50;;;32.36;28.23
61408;BME280;47274;43.054;25.146;2023-09-12T10:39:43;95782.13;;;31.81;28.00
61408;BME280;47274;43.054;25.146;2023-09-12T10:42:11;95782.09;;;31.91;29.19
61408;BME280;47274;43.054;25.146;2023-09-12T10:44:38;95766.97;;;31.92;28.00
61408;BME280;47274;43.054;25.146;2023-09-12T10:47:04;95759.50;;;31.49;29.61
61408;BME280;47274;43.054;25.146;2023-09-12T10:49:31;95767.06;;;32.16;28.30
61408;BME280;47274;43.054;25.146;2023-09-12T10:51:57;95758.16;;;31.96;28.59
61408;BME280;47274;43.054;25.146;2023-09-12T10:54:25;95762.88;;;32.44;28.72
61408;BME280;47274;43.054;25.146;2023-09-12T10:57:04;95768.09;;;32.20;27.72
61408;BME280;47274;43.054;25.146;2023-09-12T10:59:31;95740.97;;;31.89;28.55
61408;BME280;47274;43.054;25.146;2023-09-12T11:02:32;95761.03;;;31.60;27.69
61408;BME280;47274;43.054;25.146;2023-09-12T11:04:59;95732.47;;;31.42;29.17
61408;BME280;47274;43.054;25.146;2023-09-12T11:07:44;95747.16;;;31.69;27.20
61408;BME280;47274;43.054;25.146;2023-09-12T11:12:45;95749.47;;;32.25;28.39
61408;BME280;47274;43.054;25.146;2023-09-12T11:15:11;95740.97;;;31.89;27.80
61408;BME280;47274;43.054;25.146;2023-09-12T11:17:38;95758.25;;;31.26;28.74
61408;BME280;47274;43.054;25.146;2023-09-12T11:20:04;95751.19;;;31.61;28.74
61408;BME280;47274;43.054;25.146;2023-09-12T11:22:38;95742.09;;;31.77;28.91
61408;BME280;47274;43.054;25.146;2023-09-12T11:25:15;95717.13;;;31.29;29.33
61408;BME280;47274;43.054;25.146;2023-09-12T11:30:17;95759.22;;;30.50;30.13
61408;BME280;47274;43.054;25.146;2023-09-12T11:32:49;95747.00;;;30.49;30.86
61408;BME280;47274;43.054;25.146;2023-09-12T11:35:16;95750.22;;;30.20;30.71
61408;BME280;47274;43.054;25.146;2023-09-12T11:37:50;95708.91;;;30.40;29.93
61408;BME280;47274;43.054;25.146;2023-09-12T11:40:25;95748.59;;;30.60;30.14
61408;BME280;47274;43.054;25.146;2023-09-12T11:42:51;95743.28;;;30.14;31.29
61408;BME280;47274;43.054;25.146;2023-09-12T11:45:18;95737.75;;;29.85;31.39
61408;BME280;47274;43.054;25.146;2023-09-12T11:47:46;95733.41;;;29.48;30.38
61408;BME280;47274;43.054;25.146;2023-09-12T11:53:04;95726.53;;;28.42;32.94
61408;BME280;47274;43.054;25.146;2023-09-12T11:55:43;95685.66;;;28.13;33.11
61408;BME280;47274;43.054;25.146;2023-09-12T11:58:14;95732.47;;;29.07;32.74
61408;BME280;47274;43.054;25.146;2023-09-12T12:00:54;95733.13;;;29.45;32.21
61408;BME280;47274;43.054;25.146;2023-09-12T12:03:22;95719.22;;;29.95;30.92
61408;BME280;47274;43.054;25.146;2023-09-12T12:05:48;95730.63;;;30.37;30.63
61408;BME280;47274;43.054;25.146;2023-09-12T12:08:16;95709.66;;;30.61;30.10
61408;BME280;47274;43.054;25.146;2023-09-12T12:10:42;95707.22;;;30.95;29.80
61408;BME280;47274;43.054;25.146;2023-09-12T12:13:17;95728.34;;;31.15;28.53
61408;BME280;47274;43.054;25.146;2023-09-12T12:15:43;95699.97;;;31.11;28.84
61408;BME280;47274;43.054;25.146;2023-09-12T12:18:08;95722.78;;;31.12;29.06
61408;BME280;47274;43.054;25.146;2023-09-12T12:20:34;95720.75;;;30.63;28.95
61408;BME280;47274;43.054;25.146;2023-09-12T12:23:03;95711.28;;;30.11;29.69
61408;BME280;47274;43.054;25.146;2023-09-12T12:25:33;95701.22;;;30.54;30.08
61408;BME280;47274;43.054;25.146;2023-09-12T12:28:00;95713.94;;;30.06;30.19
61408;BME280;47274;43.054;25.146;2023-09-12T12:30:29;95719.19;;;29.80;30.64
61408;BME280;47274;43.054;25.146;2023-09-12T12:32:55;95674.59;;;29.05;31.30
61408;BME280;47274;43.054;25.146;2023-09-12T12:35:23;95696.03;;;28.62;32.08
61408;BME280;47274;43.054;25.146;2023-09-12T12:37:55;95723.28;;;28.35;31.88
61408;BME280;47274;43.054;25.146;2023-09-12T12:40:24;95699.59;;;27.76;33.35
61408;BME280;47274;43.054;25.146;2023-09-12T12:42:50;95700.53;;;27.64;33.51
61408;BME280;47274;43.054;25.146;2023-09-12T12:45:18;95721.09;;;28.27;32.65
61408;BME280;47274;43.054;25.146;2023-09-12T12:47:45;95702.16;;;28.72;32.30
61408;BME280;47274;43.054;25.146;2023-09-12T12:50:12;95716.06;;;29.05;31.69
61408;BME280;47274;43.054;25.146;2023-09-12T12:52:41;95713.59;;;29.51;31.55
61408;BME280;47274;43.054;25.146;2023-09-12T12:55:11;95714.16;;;29.84;30.80
61408;BME280;47274;43.054;25.146;2023-09-12T12:57:38;95702.53;;;29.69;31.25
61408;BME280;47274;43.054;25.146;2023-09-12T13:00:08;95709.06;;;29.46;30.25
61408;BME280;47274;43.054;25.146;2023-09-12T13:02:37;95694.53;;;29.49;31.42
61408;BME280;47274;43.054;25.146;2023-09-12T13:05:04;95690.34;;;29.63;30.62
61408;BME280;47274;43.054;25.146;2023-09-12T13:07:34;95683.41;;;29.47;31.08